createdAt,value
2019-01-24T00:00:40.422Z,2.71
2019-01-24T00:06:35.423Z,3.49
2019-01-24T00:12:30.401Z,0.73
2019-01-24T00:18:25.428Z,1.05
2019-01-24T00:24:20.453Z,3.21
2019-01-24T00:30:15.448Z,1.89
2019-01-24T00:36:10.433Z,1.05
2019-01-24T00:42:05.446Z,0.83
2019-01-24T00:48:00.450Z,1.15
2019-01-24T00:53:55.420Z,0.54
2019-01-24T00:59:50.470Z,1.56
2019-01-24T01:05:45.477Z,1.47
2019-01-24T01:11:40.451Z,0.7
2019-01-24T01:17:35.531Z,1.26
2019-01-24T01:23:30.472Z,3.51
2019-01-24T01:29:25.465Z,1.66
2019-01-24T01:35:20.477Z,1.58
2019-01-24T01:41:15.461Z,2.26
2019-01-24T01:47:10.452Z,2.48
2019-01-24T01:53:05.466Z,2.89
2019-01-24T01:59:00.449Z,4.03
2019-01-24T02:04:55.472Z,3.83
2019-01-24T02:10:50.516Z,2.01
2019-01-24T02:16:45.544Z,1.47
2019-01-24T02:22:40.518Z,1.55
2019-01-24T02:28:35.499Z,0.93
2019-01-24T02:34:30.568Z,1.39
2019-01-24T02:40:25.564Z,0.78
2019-01-24T02:46:20.484Z,0.7
2019-01-24T02:52:15.507Z,1.19
2019-01-24T02:58:10.496Z,2.43
2019-01-24T03:04:05.528Z,1.82
2019-01-24T03:10:00.491Z,1.38
2019-01-24T03:15:55.512Z,1.86
2019-01-24T03:21:50.496Z,1.69
2019-01-24T03:27:45.529Z,0.96
2019-01-24T03:33:40.534Z,1.11
2019-01-24T03:39:35.531Z,0.93
2019-01-24T03:45:30.558Z,1.78
2019-01-24T03:51:25.535Z,1.7
2019-01-24T03:57:20.556Z,1.29
2019-01-24T04:03:15.525Z,0.97
2019-01-24T04:09:10.511Z,1.07
2019-01-24T04:15:05.571Z,1.27
2019-01-24T04:21:00.531Z,1.01
2019-01-24T04:26:55.586Z,1.5
2019-01-24T04:32:50.549Z,1.77
2019-01-24T04:38:45.549Z,1.1
2019-01-24T04:44:40.538Z,1.17
2019-01-24T04:50:35.531Z,1.48
2019-01-24T04:56:30.564Z,1.85
2019-01-24T05:02:25.584Z,1.9
2019-01-24T05:08:20.600Z,2
2019-01-24T05:14:15.576Z,1.9
2019-01-24T05:20:10.550Z,1.81
2019-01-24T05:26:05.590Z,1.93
2019-01-24T05:32:00.598Z,1.97
2019-01-24T05:37:55.643Z,2.07
2019-01-24T05:43:50.618Z,2.1
2019-01-24T05:49:45.572Z,2.23
2019-01-24T05:55:40.575Z,1.77
2019-01-24T06:01:35.615Z,2.02
2019-01-24T06:07:30.583Z,2.03
2019-01-24T06:13:25.605Z,1.94
2019-01-24T06:19:20.614Z,2.15
2019-01-24T06:25:15.597Z,2.1
2019-01-24T06:31:10.625Z,2.12
2019-01-24T06:37:05.634Z,3.33
2019-01-24T06:43:00.597Z,2.23
2019-01-24T06:48:55.599Z,2.36
2019-01-24T06:54:50.605Z,2.2
2019-01-24T07:00:45.633Z,2.93
2019-01-24T07:06:40.614Z,2.97
2019-01-24T07:12:35.627Z,2.47
2019-01-24T07:18:30.613Z,2.62
2019-01-24T07:24:25.611Z,2.55
2019-01-24T07:30:20.643Z,3.43
2019-01-24T07:36:15.640Z,3.13
2019-01-24T07:42:10.648Z,4.18
2019-01-24T07:48:05.623Z,3
2019-01-24T07:54:00.645Z,3.58
2019-01-24T07:59:55.667Z,3.47
2019-01-24T08:05:50.666Z,3.49
2019-01-24T08:11:45.656Z,3.6
2019-01-24T08:17:40.701Z,4.02
2019-01-24T08:23:35.650Z,4.14
2019-01-24T08:29:30.684Z,6.43
2019-01-24T08:35:25.683Z,4.57
2019-01-24T08:41:20.658Z,4.6
2019-01-24T08:47:15.680Z,4.15
2019-01-24T08:53:10.762Z,4.97
2019-01-24T08:59:05.690Z,5.84
2019-01-24T09:05:00.663Z,6.32
2019-01-24T09:10:55.684Z,5.54
2019-01-24T09:16:50.684Z,7.32
2019-01-24T09:22:45.729Z,6.88
2019-01-24T09:28:40.688Z,5.83
2019-01-24T09:34:35.703Z,6.09
2019-01-24T09:40:30.686Z,5.54
2019-01-24T09:46:25.684Z,5.61
2019-01-24T09:52:20.726Z,5.35
2019-01-24T09:58:15.709Z,4.31
2019-01-24T10:04:10.712Z,6
2019-01-24T10:10:05.703Z,5.92
2019-01-24T10:16:00.750Z,5.3
2019-01-24T10:21:55.705Z,6.02
2019-01-24T10:27:50.727Z,5.81
2019-01-24T10:33:45.711Z,6.41
2019-01-24T10:39:40.743Z,5.24
2019-01-24T10:45:35.765Z,6.16
2019-01-24T10:51:30.738Z,6.59
2019-01-24T10:57:25.723Z,6.39
2019-01-24T11:03:20.760Z,5.14
2019-01-24T11:09:15.721Z,7.12
2019-01-24T11:15:10.732Z,7
2019-01-24T11:21:05.745Z,6.5
2019-01-24T11:27:00.761Z,9.56
2019-01-24T11:32:55.744Z,15.94
2019-01-24T11:38:50.779Z,7.81
2019-01-24T11:44:45.750Z,7.45
2019-01-24T11:50:40.749Z,6.57
2019-01-24T11:56:35.760Z,7.5
2019-01-24T12:02:30.759Z,7.86
2019-01-24T12:08:25.767Z,6.2
2019-01-24T12:14:20.793Z,7.28
2019-01-24T12:20:15.786Z,7.3
2019-01-24T12:26:10.809Z,7.91
2019-01-24T12:32:05.812Z,7.97
2019-01-24T12:38:00.794Z,9.38
2019-01-24T12:43:55.782Z,9.88
2019-01-24T12:49:50.824Z,8.66
2019-01-24T12:55:45.788Z,8.49
2019-01-24T13:01:40.779Z,7.35
2019-01-24T13:07:35.801Z,7.53
2019-01-24T13:13:30.817Z,6.73
2019-01-24T13:19:25.825Z,9.03
2019-01-24T13:25:20.819Z,9.3
2019-01-24T13:31:15.811Z,8.17
2019-01-24T13:37:10.801Z,7.39
2019-01-24T13:43:05.810Z,9.3
2019-01-24T13:49:00.834Z,10.49
2019-01-24T13:54:55.830Z,10.04
2019-01-24T14:00:50.816Z,7.93
2019-01-24T14:06:45.841Z,9.8
2019-01-24T14:12:40.850Z,8.57
2019-01-24T14:18:35.828Z,8.87
2019-01-24T14:24:30.826Z,7.46
2019-01-24T14:30:25.846Z,11.24
2019-01-24T14:36:25.221Z,10
2019-01-24T14:42:15.905Z,7
2019-01-24T14:48:10.857Z,8.39
2019-01-24T14:54:05.856Z,7.56
2019-01-24T15:00:00.861Z,8.4
2019-01-24T15:05:55.852Z,7.13
2019-01-24T15:11:50.883Z,7.24
2019-01-24T15:17:45.860Z,6.84
2019-01-24T15:23:40.872Z,8.41
2019-01-24T15:29:35.871Z,6.49
2019-01-24T15:35:30.879Z,6.97
2019-01-24T15:41:25.896Z,6.37
2019-01-24T15:47:20.894Z,9.27
2019-01-24T15:53:15.932Z,6.4
2019-01-24T15:59:10.873Z,8.2
2019-01-24T16:05:05.945Z,8.91
2019-01-24T16:11:00.975Z,6.44
2019-01-24T16:16:55.901Z,5.98
2019-01-24T16:22:50.938Z,6.23
2019-01-24T16:28:45.932Z,7.85
2019-01-24T16:34:40.950Z,7.6
2019-01-24T16:40:35.891Z,5.09
2019-01-24T16:46:30.931Z,5.75
2019-01-24T16:52:25.973Z,5.78
2019-01-24T16:58:20.906Z,5.97
2019-01-24T17:04:15.908Z,8.77
2019-01-24T17:10:10.939Z,7.73
2019-01-24T17:16:05.916Z,6.54
2019-01-24T17:22:00.955Z,6.63
2019-01-24T17:27:55.963Z,8.57
2019-01-24T17:33:50.947Z,8.25
2019-01-24T17:39:45.968Z,12.64
2019-01-24T17:45:40.959Z,8.65
2019-01-24T17:51:35.941Z,10.31
2019-01-24T17:57:30.950Z,8.5
2019-01-24T18:03:25.999Z,9.17
2019-01-24T18:09:20.951Z,9
2019-01-24T18:15:15.978Z,7.57
2019-01-24T18:21:10.975Z,8.04
2019-01-24T18:27:06.022Z,9.98
2019-01-24T18:33:00.983Z,10.2
2019-01-24T18:38:55.988Z,9.17
2019-01-24T18:44:50.978Z,8.93
2019-01-24T18:50:45.994Z,7.11
2019-01-24T18:56:40.994Z,8.03
2019-01-24T19:02:35.980Z,7.02
2019-01-24T19:08:30.976Z,8.57
2019-01-24T19:14:26.016Z,6.8
2019-01-24T19:20:20.989Z,7.64
2019-01-24T19:26:16.025Z,10.19
2019-01-24T19:32:10.999Z,8.33
2019-01-24T19:38:06.026Z,7.93
2019-01-24T19:44:01.022Z,12.64
2019-01-24T19:49:56.016Z,9.83
2019-01-24T19:55:51.057Z,7.53
2019-01-24T20:01:46.024Z,4.83
2019-01-24T20:07:41.013Z,7.23
2019-01-24T20:13:36.010Z,8.41
2019-01-24T20:19:31.050Z,6.78
2019-01-24T20:25:26.030Z,7.47
2019-01-24T20:31:21.054Z,9.32
2019-01-24T20:37:16.045Z,6.97
2019-01-24T20:43:11.043Z,6.72
2019-01-24T20:49:06.036Z,6.14
2019-01-24T20:55:01.044Z,6.15
2019-01-24T21:00:56.036Z,6.22
2019-01-24T21:06:51.082Z,7.15
2019-01-24T21:12:46.031Z,6.66
2019-01-24T21:18:41.062Z,7.93
2019-01-24T21:24:36.055Z,7.15
2019-01-24T21:30:31.057Z,6.63
2019-01-24T21:36:26.075Z,6.83
2019-01-24T21:42:21.054Z,7.92
2019-01-24T21:48:16.097Z,8.59
2019-01-24T21:54:11.051Z,8.61
2019-01-24T22:00:06.105Z,7.84
2019-01-24T22:06:01.110Z,9.3
2019-01-24T22:11:56.079Z,9.37
2019-01-24T22:17:51.073Z,8.92
2019-01-24T22:23:46.072Z,8.94
2019-01-24T22:29:41.076Z,9.25
2019-01-24T22:35:36.123Z,10.14
2019-01-24T22:41:31.084Z,9.1
2019-01-24T22:47:26.117Z,10.03
2019-01-24T22:53:21.114Z,10.97
2019-01-24T22:59:16.116Z,10.23
2019-01-24T23:05:11.090Z,11.76
2019-01-24T23:11:06.111Z,12.64
2019-01-24T23:17:01.112Z,11.12
2019-01-24T23:22:56.157Z,11.29
2019-01-24T23:28:51.166Z,12.72
2019-01-24T23:34:46.111Z,14.62
2019-01-24T23:40:41.140Z,11.53
2019-01-24T23:46:36.129Z,13.59
2019-01-24T23:52:31.185Z,12.46
2019-01-24T23:58:26.149Z,13.74
